sensor_id;sensor_type;location;lat;lon;timestamp;pressure;altitude;pressure_sealevel;temperature;humidity
29331;BME280;16331;52.528;13.342;2022-10-16T00:01:19;160282.34;;;16.65;100.00
29331;BME280;16331;52.528;13.342;2022-10-16T00:03:46;160314.06;;;16.77;100.00
29331;BME280;16331;52.528;13.342;2022-10-16T00:06:14;160320.94;;;16.79;100.00
29331;BME280;16331;52.528;13.342;2022-10-16T00:08:40;160318.22;;;16.78;100.00
29331;BME280;16331;52.528;13.342;2022-10-16T00:11:12;160337.53;;;16.85;100.00
29331;BME280;16331;52.528;13.342;2022-10-16T00:13:40;160329.22;;;16.82;100.00
29331;BME280;16331;52.528;13.342;2022-10-16T00:16:07;160358.22;;;16.93;100.00
29331;BME280;16331;52.528;13.342;2022-10-16T00:18:34;160336.16;;;16.85;100.00
29331;BME280;16331;52.528;13.342;2022-10-16T00:21:06;160354.09;;;16.91;100.00
29331;BME280;16331;52.528;13.342;2022-10-16T00:23:32;160334.75;;;16.84;100.00
29331;BME280;16331;52.528;13.342;2022-10-16T00:26:01;160309.94;;;16.75;100.00
29331;BME280;16331;52.528;13.342;2022-10-16T00:28:27;160333.34;;;16.84;100.00
29331;BME280;16331;52.528;13.342;2022-10-16T00:30:54;160311.28;;;16.76;100.00
29331;BME280;16331;52.528;13.342;2022-10-16T00:33:20;160298.88;;;16.71;100.00
29331;BME280;16331;52.528;13.342;2022-10-16T00:35:46;160330.63;;;16.83;100.00
29331;BME280;16331;52.528;13.342;2022-10-16T00:38:12;160337.53;;;16.85;100.00
29331;BME280;16331;52.528;13.342;2022-10-16T00:40:39;160332.00;;;16.83;100.00
29331;BME280;16331;52.528;13.342;2022-10-16T00:43:35;160376.16;;;16.99;100.00
29331;BME280;16331;52.528;13.342;2022-10-16T00:46:03;160376.16;;;16.99;100.00
29331;BME280;16331;52.528;13.342;2022-10-16T00:48:30;160362.34;;;16.94;100.00
29331;BME280;16331;52.528;13.342;2022-10-16T00:50:59;160367.88;;;16.96;100.00
29331;BME280;16331;52.528;13.342;2022-10-16T00:53:26;160412.03;;;17.12;100.00
29331;BME280;16331;52.528;13.342;2022-10-16T00:55:53;160369.22;;;16.97;100.00
29331;BME280;16331;52.528;13.342;2022-10-16T00:58:20;160367.88;;;16.96;100.00
29331;BME280;16331;52.528;13.342;2022-10-16T01:00:46;160354.09;;;16.91;100.00
29331;BME280;16331;52.528;13.342;2022-10-16T01:06:02;160348.56;;;16.89;100.00
29331;BME280;16331;52.528;13.342;2022-10-16T01:11:41;160360.97;;;16.94;100.00
29331;BME280;16331;52.528;13.342;2022-10-16T01:14:26;160360.97;;;16.94;100.00
29331;BME280;16331;52.528;13.342;2022-10-16T01:17:10;160381.69;;;17.01;100.00
29331;BME280;16331;52.528;13.342;2022-10-16T01:22:59;160333.34;;;16.84;100.00
29331;BME280;16331;52.528;13.342;2022-10-16T01:25:59;160348.56;;;16.89;100.00
29331;BME280;16331;52.528;13.342;2022-10-16T01:28:39;160362.34;;;16.94;100.00
29331;BME280;16331;52.528;13.342;2022-10-16T01:31:10;160354.09;;;16.91;100.00
29331;BME280;16331;52.528;13.342;2022-10-16T01:33:56;160355.44;;;16.92;100.00
29331;BME280;16331;52.528;13.342;2022-10-16T01:36:42;160337.53;;;16.85;100.00
29331;BME280;16331;52.528;13.342;2022-10-16T01:39:13;160348.56;;;16.89;100.00
29331;BME280;16331;52.528;13.342;2022-10-16T01:41:49;160348.56;;;16.89;100.00
29331;BME280;16331;52.528;13.342;2022-10-16T01:44:21;160343.03;;;16.87;100.00
29331;BME280;16331;52.528;13.342;2022-10-16T01:46:50;160344.41;;;16.88;100.00
29331;BME280;16331;52.528;13.342;2022-10-16T01:49:18;160325.06;;;16.81;100.00
29331;BME280;16331;52.528;13.342;2022-10-16T01:51:48;160312.66;;;16.76;100.00
29331;BME280;16331;52.528;13.342;2022-10-16T01:54:17;160330.63;;;16.83;100.00
29331;BME280;16331;52.528;13.342;2022-10-16T01:56:46;160323.75;;;16.80;100.00
29331;BME280;16331;52.528;13.342;2022-10-16T01:59:16;160356.81;;;16.92;100.00
29331;BME280;16331;52.528;13.342;2022-10-16T02:01:49;160323.75;;;16.80;100.00
29331;BME280;16331;52.528;13.342;2022-10-16T02:06:48;160338.88;;;16.86;100.00
29331;BME280;16331;52.528;13.342;2022-10-16T02:09:14;160334.75;;;16.84;100.00
29331;BME280;16331;52.528;13.342;2022-10-16T02:11:43;160366.50;;;16.96;100.00
29331;BME280;16331;52.528;13.342;2022-10-16T02:14:09;160329.22;;;16.82;100.00
29331;BME280;16331;52.528;13.342;2022-10-16T02:16:38;160340.28;;;16.86;100.00
29331;BME280;16331;52.528;13.342;2022-10-16T02:19:05;160348.56;;;16.89;100.00
29331;BME280;16331;52.528;13.342;2022-10-16T02:27:07;160340.28;;;16.86;100.00
29331;BME280;16331;52.528;13.342;2022-10-16T02:29:40;160348.56;;;16.89;100.00
29331;BME280;16331;52.528;13.342;2022-10-16T02:32:12;160318.22;;;16.78;100.00
29331;BME280;16331;52.528;13.342;2022-10-16T02:34:40;160343.03;;;16.87;100.00
29331;BME280;16331;52.528;13.342;2022-10-16T02:37:07;160356.81;;;16.92;100.00
29331;BME280;16331;52.528;13.342;2022-10-16T02:39:33;160334.75;;;16.84;100.00
29331;BME280;16331;52.528;13.342;2022-10-16T02:42:00;160318.22;;;16.78;100.00
29331;BME280;16331;52.528;13.342;2022-10-16T02:44:26;160400.97;;;17.08;100.00
29331;BME280;16331;52.528;13.342;2022-10-16T02:46:52;160461.69;;;17.30;100.00
29331;BME280;16331;52.528;13.342;2022-10-16T02:49:18;160373.38;;;16.98;100.00
29331;BME280;16331;52.528;13.342;2022-10-16T02:51:44;160332.00;;;16.83;100.00
29331;BME280;16331;52.528;13.342;2022-10-16T02:54:10;160301.66;;;16.72;100.00
29331;BME280;16331;52.528;13.342;2022-10-16T02:56:36;160323.75;;;16.80;100.00
29331;BME280;16331;52.528;13.342;2022-10-16T02:59:02;160334.75;;;16.84;100.00
29331;BME280;16331;52.528;13.342;2022-10-16T03:01:28;160304.41;;;16.73;100.00
29331;BME280;16331;52.528;13.342;2022-10-16T03:03:54;160274.06;;;16.62;100.00
29331;BME280;16331;52.528;13.342;2022-10-16T03:06:20;160276.81;;;16.63;100.00
29331;BME280;16331;52.528;13.342;2022-10-16T03:08:46;160253.41;;;16.55;100.00
29331;BME280;16331;52.528;13.342;2022-10-16T03:11:12;160254.75;;;16.55;100.00
29331;BME280;16331;52.528;13.342;2022-10-16T03:13:38;160239.59;;;16.50;100.00
29331;BME280;16331;52.528;13.342;2022-10-16T03:16:04;160268.53;;;16.60;100.00
29331;BME280;16331;52.528;13.342;2022-10-16T03:18:30;160263.00;;;16.58;100.00
29331;BME280;16331;52.528;13.342;2022-10-16T03:20:56;160254.75;;;16.55;100.00
29331;BME280;16331;52.528;13.342;2022-10-16T03:23:22;160260.25;;;16.57;100.00
29331;BME280;16331;52.528;13.342;2022-10-16T03:25:48;160224.34;;;16.44;100.00
29331;BME280;16331;52.528;13.342;2022-10-16T03:28:15;160242.34;;;16.51;100.00
29331;BME280;16331;52.528;13.342;2022-10-16T03:30:42;160194.00;;;16.33;100.00
29331;BME280;16331;52.528;13.342;2022-10-16T03:33:08;160191.28;;;16.32;100.00
29331;BME280;16331;52.528;13.342;2022-10-16T03:35:37;160221.63;;;16.43;100.00
29331;BME280;16331;52.528;13.342;2022-10-16T03:38:04;160203.69;;;16.37;100.00
29331;BME280;16331;52.528;13.342;2022-10-16T03:40:30;160209.22;;;16.39;100.00
29331;BME280;16331;52.528;13.342;2022-10-16T03:42:58;160185.75;;;16.30;100.00
29331;BME280;16331;52.528;13.342;2022-10-16T03:45:24;160199.53;;;16.35;100.00
29331;BME280;16331;52.528;13.342;2022-10-16T03:47:51;160171.94;;;16.25;100.00
29331;BME280;16331;52.528;13.342;2022-10-16T03:50:17;160199.53;;;16.35;100.00
29331;BME280;16331;52.528;13.342;2022-10-16T03:52:43;160199.53;;;16.35;100.00
29331;BME280;16331;52.528;13.342;2022-10-16T03:55:09;160210.56;;;16.39;100.00
29331;BME280;16331;52.528;13.342;2022-10-16T03:57:35;160224.34;;;16.44;100.00
29331;BME280;16331;52.528;13.342;2022-10-16T04:00:02;160243.72;;;16.51;100.00
29331;BME280;16331;52.528;13.342;2022-10-16T04:02:28;160216.06;;;16.41;100.00
29331;BME280;16331;52.528;13.342;2022-10-16T04:04:54;160229.94;;;16.46;100.00
29331;BME280;16331;52.528;13.342;2022-10-16T04:07:20;160224.34;;;16.44;100.00
29331;BME280;16331;52.528;13.342;2022-10-16T04:09:46;160202.28;;;16.36;100.00
29331;BME280;16331;52.528;13.342;2022-10-16T04:12:12;160221.63;;;16.43;100.00
29331;BME280;16331;52.528;13.342;2022-10-16T04:14:38;160163.69;;;16.22;100.00
29331;BME280;16331;52.528;13.342;2022-10-16T04:17:04;160165.09;;;16.23;100.00
29331;BME280;16331;52.528;13.342;2022-10-16T04:19:30;160155.41;;;16.19;100.00
29331;BME280;16331;52.528;13.342;2022-10-16T04:21:56;160167.81;;;16.24;100.00
29331;BME280;16331;52.528;13.342;2022-10-16T04:24:22;160154.03;;;16.19;100.00
29331;BME280;16331;52.528;13.342;2022-10-16T04:26:48;160137.50;;;16.13;100.00
29331;BME280;16331;52.528;13.342;2022-10-16T04:29:15;160144.38;;;16.15;100.00
29331;BME280;16331;52.528;13.342;2022-10-16T04:31:41;160159.56;;;16.21;100.00
29331;BME280;16331;52.528;13.342;2022-10-16T04:34:07;160125.09;;;16.08;100.00
29331;BME280;16331;52.528;13.342;2022-10-16T04:36:33;160097.50;;;15.98;100.00
29331;BME280;16331;52.528;13.342;2022-10-16T04:38:59;160147.16;;;16.16;100.00
29331;BME280;16331;52.528;13.342;2022-10-16T04:41:25;160138.88;;;16.13;100.00
29331;BME280;16331;52.528;13.342;2022-10-16T04:43:51;160147.16;;;16.16;100.00
29331;BME280;16331;52.528;13.342;2022-10-16T04:46:17;160149.88;;;16.17;100.00
29331;BME280;16331;52.528;13.342;2022-10-16T04:48:43;160122.31;;;16.07;100.00
29331;BME280;16331;52.528;13.342;2022-10-16T04:51:09;160143.03;;;16.15;100.00
29331;BME280;16331;52.528;13.342;2022-10-16T04:53:36;160104.44;;;16.01;100.00
29331;BME280;16331;52.528;13.342;2022-10-16T04:56:02;160116.84;;;16.05;100.00
29331;BME280;16331;52.528;13.342;2022-10-16T04:58:28;160140.22;;;16.14;100.00
29331;BME280;16331;52.528;13.342;2022-10-16T05:00:54;160107.16;;;16.02;100.00
29331;BME280;16331;52.528;13.342;2022-10-16T05:03:20;160083.72;;;15.93;100.00
29331;BME280;16331;52.528;13.342;2022-10-16T05:05:47;160065.78;;;15.86;100.00
29331;BME280;16331;52.528;13.342;2022-10-16T05:08:16;160072.72;;;15.89;100.00
29331;BME280;16331;52.528;13.342;2022-10-16T05:10:45;160057.53;;;15.83;100.00
29331;BME280;16331;52.528;13.342;2022-10-16T05:13:12;160054.78;;;15.82;100.00
29331;BME280;16331;52.528;13.342;2022-10-16T05:15:38;160053.41;;;15.82;100.00
29331;BME280;16331;52.528;13.342;2022-10-16T05:18:04;160074.06;;;15.89;100.00
29331;BME280;16331;52.528;13.342;2022-10-16T05:20:30;160089.25;;;15.95;100.00
29331;BME280;16331;52.528;13.342;2022-10-16T05:22:56;160069.94;;;15.88;100.00
29331;BME280;16331;52.528;13.342;2022-10-16T05:25:23;160076.84;;;15.90;100.00
29331;BME280;16331;52.528;13.342;2022-10-16T05:27:50;160116.84;;;16.05;100.00
29331;BME280;16331;52.528;13.342;2022-10-16T05:30:17;160093.38;;;15.97;100.00
29331;BME280;16331;52.528;13.342;2022-10-16T05:32:47;160086.50;;;15.94;100.00
29331;BME280;16331;52.528;13.342;2022-10-16T05:35:13;160116.84;;;16.05;100.00
29331;BME280;16331;52.528;13.342;2022-10-16T05:37:39;160155.41;;;16.19;100.00
29331;BME280;16331;52.528;13.342;2022-10-16T05:40:06;160122.31;;;16.07;100.00
29331;BME280;16331;52.528;13.342;2022-10-16T05:42:32;160129.22;;;16.10;100.00
29331;BME280;16331;52.528;13.342;2022-10-16T05:44:58;160111.31;;;16.03;100.00
29331;BME280;16331;52.528;13.342;2022-10-16T05:47:24;160147.16;;;16.16;100.00
29331;BME280;16331;52.528;13.342;2022-10-16T05:49:50;160118.16;;;16.06;100.00
29331;BME280;16331;52.528;13.342;2022-10-16T05:52:16;160192.63;;;16.33;100.00
29331;BME280;16331;52.528;13.342;2022-10-16T05:54:42;160246.47;;;16.52;100.00
29331;BME280;16331;52.528;13.342;2022-10-16T05:57:08;160239.59;;;16.50;100.00
29331;BME280;16331;52.528;13.342;2022-10-16T05:59:34;160276.81;;;16.63;100.00
29331;BME280;16331;52.528;13.342;2022-10-16T06:02:00;160253.41;;;16.55;100.00
29331;BME280;16331;52.528;13.342;2022-10-16T06:04:26;160296.13;;;16.70;100.00
29331;BME280;16331;52.528;13.342;2022-10-16T06:06:52;160238.19;;;16.49;100.00
29331;BME280;16331;52.528;13.342;2022-10-16T06:09:18;160228.53;;;16.46;100.00
29331;BME280;16331;52.528;13.342;2022-10-16T06:11:44;160287.88;;;16.67;100.00
29331;BME280;16331;52.528;13.342;2022-10-16T06:14:10;160229.94;;;16.46;100.00
29331;BME280;16331;52.528;13.342;2022-10-16T06:16:37;160232.66;;;16.47;100.00
29331;BME280;16331;52.528;13.342;2022-10-16T06:19:04;160274.06;;;16.62;100.00
29331;BME280;16331;52.528;13.342;2022-10-16T06:21:32;160315.47;;;16.77;100.00
29331;BME280;16331;52.528;13.342;2022-10-16T06:23:59;160287.88;;;16.67;100.00
29331;BME280;16331;52.528;13.342;2022-10-16T06:26:27;160365.09;;;16.95;100.00
29331;BME280;16331;52.528;13.342;2022-10-16T06:28:57;160370.63;;;16.97;100.00
29331;BME280;16331;52.528;13.342;2022-10-16T06:31:24;160283.72;;;16.66;100.00
29331;BME280;16331;52.528;13.342;2022-10-16T06:33:54;160249.25;;;16.53;100.00
29331;BME280;16331;52.528;13.342;2022-10-16T06:36:20;160218.81;;;16.42;100.00
29331;BME280;16331;52.528;13.342;2022-10-16T06:38:47;160264.41;;;16.59;100.00
29331;BME280;16331;52.528;13.342;2022-10-16T06:41:15;160380.28;;;17.01;100.00
29331;BME280;16331;52.528;13.342;2022-10-16T06:43:41;160304.41;;;16.73;100.00
29331;BME280;16331;52.528;13.342;2022-10-16T06:46:11;160264.41;;;16.59;100.00
29331;BME280;16331;52.528;13.342;2022-10-16T06:48:37;160293.41;;;16.69;100.00
29331;BME280;16331;52.528;13.342;2022-10-16T06:51:12;160293.41;;;16.69;100.00
29331;BME280;16331;52.528;13.342;2022-10-16T06:53:41;160296.13;;;16.70;100.00
29331;BME280;16331;52.528;13.342;2022-10-16T06:56:10;160332.00;;;16.83;100.00
29331;BME280;16331;52.528;13.342;2022-10-16T06:58:36;160372.03;;;16.98;100.00
29331;BME280;16331;52.528;13.342;2022-10-16T07:01:02;160381.69;;;17.01;100.00
29331;BME280;16331;52.528;13.342;2022-10-16T07:03:28;160345.81;;;16.88;100.00
29331;BME280;16331;52.528;13.342;2022-10-16T07:05:54;160374.75;;;16.99;100.00
29331;BME280;16331;52.528;13.342;2022-10-16T07:08:20;160385.81;;;17.03;100.00
29331;BME280;16331;52.528;13.342;2022-10-16T07:10:46;160435.47;;;17.21;100.00
29331;BME280;16331;52.528;13.342;2022-10-16T07:13:12;160460.34;;;17.30;100.00
29331;BME280;16331;52.528;13.342;2022-10-16T07:15:40;160507.28;;;17.47;100.00
29331;BME280;16331;52.528;13.342;2022-10-16T07:18:06;160561.13;;;17.67;100.00
29331;BME280;16331;52.528;13.342;2022-10-16T07:20:32;160497.56;;;17.44;100.00
29331;BME280;16331;52.528;13.342;2022-10-16T07:22:58;160516.97;;;17.51;100.00
29331;BME280;16331;52.528;13.342;2022-10-16T07:25:24;160559.75;;;17.66;100.00
29331;BME280;16331;52.528;13.342;2022-10-16T07:27:50;160514.16;;;17.50;100.00
29331;BME280;16331;52.528;13.342;2022-10-16T07:30:16;160510.03;;;17.48;100.00
29331;BME280;16331;52.528;13.342;2022-10-16T07:32:42;160519.72;;;17.52;100.00
29331;BME280;16331;52.528;13.342;2022-10-16T07:35:09;160562.47;;;17.67;100.00
29331;BME280;16331;52.528;13.342;2022-10-16T07:37:35;160527.97;;;17.55;100.00
29331;BME280;16331;52.528;13.342;2022-10-16T07:40:01;160532.13;;;17.56;100.00
29331;BME280;16331;52.528;13.342;2022-10-16T07:42:27;160558.34;;;17.66;100.00
29331;BME280;16331;52.528;13.342;2022-10-16T07:44:54;160603.94;;;17.82;100.00
29331;BME280;16331;52.528;13.342;2022-10-16T07:47:20;160599.78;;;17.81;100.00
29331;BME280;16331;52.528;13.342;2022-10-16T07:49:46;160590.13;;;17.77;100.00
29331;BME280;16331;52.528;13.342;2022-10-16T07:52:12;160599.78;;;17.81;100.00
29331;BME280;16331;52.528;13.342;2022-10-16T07:54:38;160552.88;;;17.64;100.00
29331;BME280;16331;52.528;13.342;2022-10-16T07:57:04;160526.63;;;17.54;100.00
29331;BME280;16331;52.528;13.342;2022-10-16T07:59:30;160500.41;;;17.45;100.00
29331;BME280;16331;52.528;13.342;2022-10-16T08:01:56;160552.88;;;17.64;100.00
29331;BME280;16331;52.528;13.342;2022-10-16T08:04:22;160581.84;;;17.74;100.00
29331;BME280;16331;52.528;13.342;2022-10-16T08:06:48;160608.06;;;17.84;100.00
29331;BME280;16331;52.528;13.342;2022-10-16T08:09:15;160661.94;;;18.03;100.00
29331;BME280;16331;52.528;13.342;2022-10-16T08:11:41;160701.97;;;18.18;100.00
29331;BME280;16331;52.528;13.342;2022-10-16T08:14:07;160776.63;;;18.45;100.00
29331;BME280;16331;52.528;13.342;2022-10-16T08:16:33;160754.47;;;18.37;100.00
29331;BME280;16331;52.528;13.342;2022-10-16T08:18:59;160801.47;;;18.54;100.00
29331;BME280;16331;52.528;13.342;2022-10-16T08:21:25;160757.19;;;18.38;100.00
29331;BME280;16331;52.528;13.342;2022-10-16T08:23:52;160692.28;;;18.14;100.00
29331;BME280;16331;52.528;13.342;2022-10-16T08:26:18;160732.34;;;18.29;100.00
29331;BME280;16331;52.528;13.342;2022-10-16T08:28:45;160747.53;;;18.34;100.00
29331;BME280;16331;52.528;13.342;2022-10-16T08:31:13;160748.91;;;18.35;100.00
29331;BME280;16331;52.528;13.342;2022-10-16T08:33:42;160737.91;;;18.31;100.00
29331;BME280;16331;52.528;13.342;2022-10-16T08:36:10;160742.03;;;18.32;100.00
29331;BME280;16331;52.528;13.342;2022-10-16T08:38:36;160751.66;;;18.36;100.00
29331;BME280;16331;52.528;13.342;2022-10-16T08:41:22;160748.91;;;18.35;100.00
29331;BME280;16331;52.528;13.342;2022-10-16T08:44:15;160722.69;;;18.25;100.00
29331;BME280;16331;52.528;13.342;2022-10-16T08:49:27;160779.34;;;18.46;100.00
29331;BME280;16331;52.528;13.342;2022-10-16T08:51:55;160765.53;;;18.41;100.00
29331;BME280;16331;52.528;13.342;2022-10-16T08:54:43;160782.16;;;18.47;100.00
29331;BME280;16331;52.528;13.342;2022-10-16T08:57:16;160866.38;;;18.77;100.00
29331;BME280;16331;52.528;13.342;2022-10-16T08:59:43;160852.59;;;18.73;100.00
29331;BME280;16331;52.528;13.342;2022-10-16T09:02:34;160916.16;;;18.96;100.00
29331;BME280;16331;52.528;13.342;2022-10-16T09:08:15;161025.38;;;19.35;100.00
29331;BME280;16331;52.528;13.342;2022-10-16T09:10:58;161061.34;;;19.48;100.00
29331;BME280;16331;52.528;13.342;2022-10-16T09:17:03;160997.72;;;19.25;100.00
29331;BME280;16331;52.528;13.342;2022-10-16T09:19:42;160979.75;;;19.19;100.00
29331;BME280;16331;52.528;13.342;2022-10-16T09:22:15;160992.19;;;19.23;100.00
29331;BME280;16331;52.528;13.342;2022-10-16T09:24:42;160950.69;;;19.08;100.00
29331;BME280;16331;52.528;13.342;2022-10-16T09:27:15;160960.38;;;19.12;100.00
29331;BME280;16331;52.528;13.342;2022-10-16T09:29:41;161011.59;;;19.30;100.00
29331;BME280;16331;52.528;13.342;2022-10-16T09:32:25;161068.28;;;19.51;100.00
29331;BME280;16331;52.528;13.342;2022-10-16T09:34:54;161060.00;;;19.48;100.00
29331;BME280;16331;52.528;13.342;2022-10-16T09:37:23;161058.59;;;19.47;100.00
29331;BME280;16331;52.528;13.342;2022-10-16T09:39:52;161007.41;;;19.29;100.00
29331;BME280;16331;52.528;13.342;2022-10-16T09:42:23;161008.81;;;19.29;100.00
29331;BME280;16331;52.528;13.342;2022-10-16T09:44:53;161095.88;;;19.61;100.00
29331;BME280;16331;52.528;13.342;2022-10-16T09:47:25;161115.28;;;19.68;100.00
29331;BME280;16331;52.528;13.342;2022-10-16T09:50:00;161061.34;;;19.48;100.00
29331;BME280;16331;52.528;13.342;2022-10-16T09:52:29;161057.19;;;19.47;100.00
29331;BME280;16331;52.528;13.342;2022-10-16T09:55:02;161050.28;;;19.44;100.00
29331;BME280;16331;52.528;13.342;2022-10-16T09:57:29;161069.63;;;19.51;100.00
29331;BME280;16331;52.528;13.342;2022-10-16T09:59:58;161194.09;;;19.96;100.00
29331;BME280;16331;52.528;13.342;2022-10-16T10:02:30;161217.63;;;20.05;100.00
29331;BME280;16331;52.528;13.342;2022-10-16T10:04:57;161289.63;;;20.31;100.00
29331;BME280;16331;52.528;13.342;2022-10-16T10:07:32;161361.53;;;20.57;100.00
29331;BME280;16331;52.528;13.342;2022-10-16T10:10:01;161385.09;;;20.66;100.00
29331;BME280;16331;52.528;13.342;2022-10-16T10:12:28;161376.78;;;20.63;100.00
29331;BME280;16331;52.528;13.342;2022-10-16T10:15:03;161266.09;;;20.23;100.00
29331;BME280;16331;52.528;13.342;2022-10-16T10:17:30;161290.97;;;20.32;100.00
29331;BME280;16331;52.528;13.342;2022-10-16T10:19:59;161351.84;;;20.54;100.00
29331;BME280;16331;52.528;13.342;2022-10-16T10:22:40;161405.81;;;20.73;100.00
29331;BME280;16331;52.528;13.342;2022-10-16T10:33:57;161239.75;;;20.13;100.00
29331;BME280;16331;52.528;13.342;2022-10-16T10:36:32;161259.16;;;20.20;100.00
29331;BME280;16331;52.528;13.342;2022-10-16T10:39:19;161299.28;;;20.35;100.00
29331;BME280;16331;52.528;13.342;2022-10-16T10:44:57;161302.06;;;20.36;100.00
29331;BME280;16331;52.528;13.342;2022-10-16T10:47:47;161303.41;;;20.36;100.00
29331;BME280;16331;52.528;13.342;2022-10-16T10:55:44;161497.28;;;21.06;100.00
29331;BME280;16331;52.528;13.342;2022-10-16T11:01:08;161710.53;;;21.84;100.00
29331;BME280;16331;52.528;13.342;2022-10-16T11:06:12;161689.78;;;21.76;100.00
29331;BME280;16331;52.528;13.342;2022-10-16T11:08:42;161650.97;;;21.62;100.00
29331;BME280;16331;52.528;13.342;2022-10-16T11:11:30;161598.34;;;21.43;100.00
29331;BME280;16331;52.528;13.342;2022-10-16T11:16:35;161673.13;;;21.70;100.00
29331;BME280;16331;52.528;13.342;2022-10-16T11:21:47;161793.66;;;22.14;100.00
29331;BME280;16331;52.528;13.342;2022-10-16T11:24:37;161729.97;;;21.91;100.00
29331;BME280;16331;52.528;13.342;2022-10-16T11:27:10;161682.84;;;21.74;100.00
29331;BME280;16331;52.528;13.342;2022-10-16T11:29:44;161605.25;;;21.45;100.00
29331;BME280;16331;52.528;13.342;2022-10-16T11:32:28;161621.84;;;21.51;100.00
29331;BME280;16331;52.528;13.342;2022-10-16T11:35:14;161590.03;;;21.40;100.00
29331;BME280;16331;52.528;13.342;2022-10-16T11:37:45;161646.81;;;21.61;100.00
29331;BME280;16331;52.528;13.342;2022-10-16T11:40:23;161705.03;;;21.82;100.00
29331;BME280;16331;52.528;13.342;2022-10-16T11:43:16;161598.34;;;21.43;100.00
29331;BME280;16331;52.528;13.342;2022-10-16T11:45:46;161649.56;;;21.62;100.00
29331;BME280;16331;52.528;13.342;2022-10-16T11:50:54;161790.91;;;22.13;100.00
29331;BME280;16331;52.528;13.342;2022-10-16T11:53:34;161721.66;;;21.88;100.00
29331;BME280;16331;52.528;13.342;2022-10-16T11:56:05;161664.81;;;21.67;100.00
29331;BME280;16331;52.528;13.342;2022-10-16T11:58:47;161628.78;;;21.54;100.00
29331;BME280;16331;52.528;13.342;2022-10-16T12:01:33;161463.97;;;20.94;100.00
29331;BME280;16331;52.528;13.342;2022-10-16T12:06:53;161606.63;;;21.46;100.00
29331;BME280;16331;52.528;13.342;2022-10-16T12:09:27;161819.97;;;22.23;100.00
29331;BME280;16331;52.528;13.342;2022-10-16T12:12:00;162012.72;;;22.93;97.23
29331;BME280;16331;52.528;13.342;2022-10-16T12:17:21;162465.13;;;24.57;84.51
29331;BME280;16331;52.528;13.342;2022-10-16T12:22:40;162711.00;;;25.45;73.62
29331;BME280;16331;52.528;13.342;2022-10-16T12:25:24;162538.72;;;24.83;76.65
29331;BME280;16331;52.528;13.342;2022-10-16T12:27:59;162505.44;;;24.71;76.43
29331;BME280;16331;52.528;13.342;2022-10-16T12:30:27;162410.97;;;24.37;77.94
29331;BME280;16331;52.528;13.342;2022-10-16T12:32:56;162555.38;;;24.89;75.21
29331;BME280;16331;52.528;13.342;2022-10-16T12:35:30;162766.59;;;25.66;68.80
29331;BME280;16331;52.528;13.342;2022-10-16T12:40:44;162711.00;;;25.45;66.68
29331;BME280;16331;52.528;13.342;2022-10-16T12:51:41;162854.13;;;25.97;64.09
29331;BME280;16331;52.528;13.342;2022-10-16T12:54:18;162817.97;;;25.84;60.49
29331;BME280;16331;52.528;13.342;2022-10-16T13:14:04;163018.19;;;26.56;57.47
29331;BME280;16331;52.528;13.342;2022-10-16T13:25:41;162684.59;;;25.36;62.83
29331;BME280;16331;52.528;13.342;2022-10-16T13:28:12;162798.50;;;25.77;62.47
29331;BME280;16331;52.528;13.342;2022-10-16T13:30:41;162929.22;;;26.24;57.53
29331;BME280;16331;52.528;13.342;2022-10-16T13:33:35;162591.50;;;25.02;63.16
29331;BME280;16331;52.528;13.342;2022-10-16T13:36:03;162681.84;;;25.35;64.74
29331;BME280;16331;52.528;13.342;2022-10-16T13:38:36;163087.75;;;26.81;56.47
29331;BME280;16331;52.528;13.342;2022-10-16T13:41:25;163153.16;;;27.05;55.49
29331;BME280;16331;52.528;13.342;2022-10-16T13:43:52;163153.16;;;27.05;56.25
29331;BME280;16331;52.528;13.342;2022-10-16T13:46:23;163085.00;;;26.80;57.58
29331;BME280;16331;52.528;13.342;2022-10-16T13:49:15;163338.22;;;27.72;53.35
29331;BME280;16331;52.528;13.342;2022-10-16T13:52:20;163381.34;;;27.87;48.98
29331;BME280;16331;52.528;13.342;2022-10-16T13:54:55;163158.69;;;27.07;50.88
29331;BME280;16331;52.528;13.342;2022-10-16T13:57:23;162945.88;;;26.30;53.71
29331;BME280;16331;52.528;13.342;2022-10-16T13:59:50;162642.91;;;25.21;56.99
29331;BME280;16331;52.528;13.342;2022-10-16T14:02:26;162254.06;;;23.80;65.67
29331;BME280;16331;52.528;13.342;2022-10-16T14:04:54;162108.44;;;23.28;70.43
29331;BME280;16331;52.528;13.342;2022-10-16T14:07:34;162021.03;;;22.96;73.30
29331;BME280;16331;52.528;13.342;2022-10-16T14:10:07;161875.44;;;22.43;77.84
29331;BME280;16331;52.528;13.342;2022-10-16T14:12:44;161775.69;;;22.07;81.69
29331;BME280;16331;52.528;13.342;2022-10-16T14:15:18;161779.84;;;22.09;82.91
29331;BME280;16331;52.528;13.342;2022-10-16T14:17:47;161741.00;;;21.95;84.69
29331;BME280;16331;52.528;13.342;2022-10-16T14:20:15;161723.00;;;21.88;86.02
29331;BME280;16331;52.528;13.342;2022-10-16T14:22:42;161695.34;;;21.78;87.22
29331;BME280;16331;52.528;13.342;2022-10-16T14:30:35;161662.00;;;21.66;90.13
29331;BME280;16331;52.528;13.342;2022-10-16T14:33:20;161668.97;;;21.69;90.62